sensor_id;sensor_type;location;lat;lon;timestamp;P1;durP1;ratioP1;P2;durP2;ratioP2
39300;SDS011;25019;42.626;23.380;2024-03-08T00:02:24;15.17;;;9.27;;
39300;SDS011;25019;42.626;23.380;2024-03-08T00:04:50;14.47;;;8.83;;
39300;SDS011;25019;42.626;23.380;2024-03-08T00:07:15;16.50;;;9.57;;
39300;SDS011;25019;42.626;23.380;2024-03-08T00:09:42;13.10;;;8.23;;
39300;SDS011;25019;42.626;23.380;2024-03-08T00:12:08;14.90;;;9.53;;
39300;SDS011;25019;42.626;23.380;2024-03-08T00:14:34;15.90;;;9.53;;
39300;SDS011;25019;42.626;23.380;2024-03-08T00:17:02;12.83;;;8.53;;
39300;SDS011;25019;42.626;23.380;2024-03-08T00:19:28;14.07;;;8.47;;
39300;SDS011;25019;42.626;23.380;2024-03-08T00:21:54;14.93;;;9.00;;
39300;SDS011;25019;42.626;23.380;2024-03-08T00:24:20;13.73;;;8.90;;
39300;SDS011;25019;42.626;23.380;2024-03-08T00:26:50;15.30;;;8.97;;
39300;SDS011;25019;42.626;23.380;2024-03-08T00:29:16;14.43;;;9.07;;
39300;SDS011;25019;42.626;23.380;2024-03-08T00:31:41;18.00;;;9.00;;
39300;SDS011;25019;42.626;23.380;2024-03-08T00:34:07;16.90;;;9.07;;
39300;SDS011;25019;42.626;23.380;2024-03-08T00:36:35;14.90;;;9.13;;
39300;SDS011;25019;42.626;23.380;2024-03-08T00:39:01;16.00;;;9.30;;
39300;SDS011;25019;42.626;23.380;2024-03-08T00:41:27;19.97;;;9.67;;
39300;SDS011;25019;42.626;23.380;2024-03-08T00:43:53;17.40;;;9.83;;
39300;SDS011;25019;42.626;23.380;2024-03-08T00:46:19;17.33;;;10.17;;
39300;SDS011;25019;42.626;23.380;2024-03-08T00:48:44;15.97;;;10.30;;
39300;SDS011;25019;42.626;23.380;2024-03-08T00:51:10;19.73;;;10.27;;
39300;SDS011;25019;42.626;23.380;2024-03-08T00:53:36;17.60;;;10.27;;
39300;SDS011;25019;42.626;23.380;2024-03-08T00:56:02;18.63;;;10.83;;
39300;SDS011;25019;42.626;23.380;2024-03-08T00:58:29;20.27;;;10.40;;
39300;SDS011;25019;42.626;23.380;2024-03-08T01:00:55;20.90;;;10.67;;
39300;SDS011;25019;42.626;23.380;2024-03-08T01:03:22;19.23;;;11.20;;
39300;SDS011;25019;42.626;23.380;2024-03-08T01:05:48;21.00;;;12.03;;
39300;SDS011;25019;42.626;23.380;2024-03-08T01:08:14;18.57;;;10.83;;
39300;SDS011;25019;42.626;23.380;2024-03-08T01:10:39;23.30;;;10.93;;
39300;SDS011;25019;42.626;23.380;2024-03-08T01:13:05;17.83;;;10.27;;
39300;SDS011;25019;42.626;23.380;2024-03-08T01:15:31;16.60;;;9.83;;
39300;SDS011;25019;42.626;23.380;2024-03-08T01:17:56;12.80;;;7.17;;
39300;SDS011;25019;42.626;23.380;2024-03-08T01:20:22;13.90;;;7.87;;
39300;SDS011;25019;42.626;23.380;2024-03-08T01:22:48;14.40;;;8.07;;
39300;SDS011;25019;42.626;23.380;2024-03-08T01:25:13;14.47;;;8.37;;
39300;SDS011;25019;42.626;23.380;2024-03-08T01:27:39;12.03;;;7.07;;
39300;SDS011;25019;42.626;23.380;2024-03-08T01:30:05;15.27;;;8.00;;
39300;SDS011;25019;42.626;23.380;2024-03-08T01:32:31;15.03;;;7.47;;
39300;SDS011;25019;42.626;23.380;2024-03-08T01:34:57;12.37;;;6.90;;
39300;SDS011;25019;42.626;23.380;2024-03-08T01:37:23;10.87;;;7.20;;
39300;SDS011;25019;42.626;23.380;2024-03-08T01:39:49;9.30;;;5.77;;
39300;SDS011;25019;42.626;23.380;2024-03-08T01:42:15;7.57;;;5.00;;
39300;SDS011;25019;42.626;23.380;2024-03-08T01:44:43;7.27;;;4.70;;
39300;SDS011;25019;42.626;23.380;2024-03-08T01:47:09;7.13;;;4.27;;
39300;SDS011;25019;42.626;23.380;2024-03-08T01:49:37;6.67;;;4.30;;
39300;SDS011;25019;42.626;23.380;2024-03-08T01:52:03;6.80;;;4.60;;
39300;SDS011;25019;42.626;23.380;2024-03-08T01:54:29;7.10;;;4.43;;
39300;SDS011;25019;42.626;23.380;2024-03-08T01:56:56;4.60;;;3.43;;
39300;SDS011;25019;42.626;23.380;2024-03-08T01:59:24;6.07;;;4.00;;
39300;SDS011;25019;42.626;23.380;2024-03-08T02:01:52;6.43;;;3.73;;
39300;SDS011;25019;42.626;23.380;2024-03-08T02:04:20;6.47;;;3.83;;
39300;SDS011;25019;42.626;23.380;2024-03-08T02:06:46;5.93;;;3.50;;
39300;SDS011;25019;42.626;23.380;2024-03-08T02:09:13;5.17;;;3.67;;
39300;SDS011;25019;42.626;23.380;2024-03-08T02:11:40;6.07;;;3.87;;
39300;SDS011;25019;42.626;23.380;2024-03-08T02:14:06;7.17;;;3.97;;
39300;SDS011;25019;42.626;23.380;2024-03-08T02:16:32;5.83;;;4.43;;
39300;SDS011;25019;42.626;23.380;2024-03-08T02:18:58;4.73;;;3.23;;
39300;SDS011;25019;42.626;23.380;2024-03-08T02:21:24;5.00;;;3.50;;
39300;SDS011;25019;42.626;23.380;2024-03-08T02:23:50;5.37;;;2.97;;
39300;SDS011;25019;42.626;23.380;2024-03-08T02:26:17;6.03;;;3.20;;
39300;SDS011;25019;42.626;23.380;2024-03-08T02:28:44;5.47;;;2.80;;
39300;SDS011;25019;42.626;23.380;2024-03-08T02:31:11;4.13;;;2.10;;
39300;SDS011;25019;42.626;23.380;2024-03-08T02:33:37;3.67;;;2.60;;
39300;SDS011;25019;42.626;23.380;2024-03-08T02:36:03;5.23;;;2.70;;
39300;SDS011;25019;42.626;23.380;2024-03-08T02:38:29;2.83;;;2.37;;
39300;SDS011;25019;42.626;23.380;2024-03-08T02:40:55;6.17;;;2.70;;
39300;SDS011;25019;42.626;23.380;2024-03-08T02:43:21;3.73;;;2.70;;
39300;SDS011;25019;42.626;23.380;2024-03-08T02:45:47;3.40;;;2.43;;
39300;SDS011;25019;42.626;23.380;2024-03-08T02:48:13;4.13;;;2.20;;
39300;SDS011;25019;42.626;23.380;2024-03-08T02:50:41;3.43;;;2.63;;
39300;SDS011;25019;42.626;23.380;2024-03-08T02:53:10;3.33;;;2.53;;
39300;SDS011;25019;42.626;23.380;2024-03-08T02:55:37;3.07;;;2.20;;
39300;SDS011;25019;42.626;23.380;2024-03-08T02:58:04;4.37;;;3.17;;
39300;SDS011;25019;42.626;23.380;2024-03-08T03:00:30;4.57;;;2.70;;
39300;SDS011;25019;42.626;23.380;2024-03-08T03:02:57;4.97;;;3.13;;
39300;SDS011;25019;42.626;23.380;2024-03-08T03:05:23;4.23;;;2.70;;
39300;SDS011;25019;42.626;23.380;2024-03-08T03:07:49;3.70;;;2.27;;
39300;SDS011;25019;42.626;23.380;2024-03-08T03:10:19;3.40;;;2.33;;
39300;SDS011;25019;42.626;23.380;2024-03-08T03:12:48;2.67;;;1.87;;
39300;SDS011;25019;42.626;23.380;2024-03-08T03:15:14;3.47;;;2.20;;
39300;SDS011;25019;42.626;23.380;2024-03-08T03:17:47;3.07;;;2.20;;
39300;SDS011;25019;42.626;23.380;2024-03-08T03:20:14;3.00;;;2.10;;
39300;SDS011;25019;42.626;23.380;2024-03-08T03:22:40;2.33;;;1.83;;
39300;SDS011;25019;42.626;23.380;2024-03-08T03:25:07;3.30;;;2.27;;
39300;SDS011;25019;42.626;23.380;2024-03-08T03:27:34;3.10;;;2.33;;
39300;SDS011;25019;42.626;23.380;2024-03-08T03:30:01;4.93;;;2.97;;
39300;SDS011;25019;42.626;23.380;2024-03-08T03:35:32;2.77;;;2.33;;
39300;SDS011;25019;42.626;23.380;2024-03-08T03:37:58;3.47;;;2.73;;
39300;SDS011;25019;42.626;23.380;2024-03-08T03:40:28;3.30;;;2.80;;
39300;SDS011;25019;42.626;23.380;2024-03-08T03:42:54;3.83;;;2.80;;
39300;SDS011;25019;42.626;23.380;2024-03-08T03:45:20;3.07;;;2.40;;
39300;SDS011;25019;42.626;23.380;2024-03-08T03:47:46;2.30;;;2.10;;
39300;SDS011;25019;42.626;23.380;2024-03-08T03:50:12;2.77;;;2.43;;
39300;SDS011;25019;42.626;23.380;2024-03-08T03:52:37;3.33;;;2.40;;
39300;SDS011;25019;42.626;23.380;2024-03-08T03:55:03;2.30;;;2.10;;
39300;SDS011;25019;42.626;23.380;2024-03-08T03:57:30;2.53;;;1.93;;
39300;SDS011;25019;42.626;23.380;2024-03-08T03:59:56;2.43;;;1.97;;
39300;SDS011;25019;42.626;23.380;2024-03-08T04:02:25;3.97;;;2.20;;
39300;SDS011;25019;42.626;23.380;2024-03-08T04:04:54;3.53;;;1.90;;
39300;SDS011;25019;42.626;23.380;2024-03-08T04:07:22;2.00;;;1.13;;
39300;SDS011;25019;42.626;23.380;2024-03-08T04:09:48;1.77;;;1.20;;
39300;SDS011;25019;42.626;23.380;2024-03-08T04:12:14;1.30;;;1.07;;
39300;SDS011;25019;42.626;23.380;2024-03-08T04:14:41;0.83;;;0.80;;
39300;SDS011;25019;42.626;23.380;2024-03-08T04:17:07;1.53;;;1.07;;
39300;SDS011;25019;42.626;23.380;2024-03-08T04:19:37;1.47;;;1.03;;
39300;SDS011;25019;42.626;23.380;2024-03-08T04:22:05;1.07;;;0.87;;
39300;SDS011;25019;42.626;23.380;2024-03-08T04:24:32;1.27;;;0.87;;
39300;SDS011;25019;42.626;23.380;2024-03-08T04:26:58;1.43;;;0.97;;
39300;SDS011;25019;42.626;23.380;2024-03-08T04:29:24;4.23;;;1.00;;
39300;SDS011;25019;42.626;23.380;2024-03-08T04:31:50;1.47;;;0.90;;
39300;SDS011;25019;42.626;23.380;2024-03-08T04:34:21;1.23;;;0.80;;
39300;SDS011;25019;42.626;23.380;2024-03-08T04:36:48;1.47;;;0.90;;
39300;SDS011;25019;42.626;23.380;2024-03-08T04:39:14;1.57;;;0.83;;
39300;SDS011;25019;42.626;23.380;2024-03-08T04:41:41;1.13;;;0.83;;
39300;SDS011;25019;42.626;23.380;2024-03-08T04:44:09;1.50;;;0.70;;
39300;SDS011;25019;42.626;23.380;2024-03-08T04:46:36;1.53;;;0.90;;
39300;SDS011;25019;42.626;23.380;2024-03-08T04:49:01;1.17;;;0.90;;
39300;SDS011;25019;42.626;23.380;2024-03-08T04:51:27;1.70;;;1.27;;
39300;SDS011;25019;42.626;23.380;2024-03-08T04:53:53;2.43;;;1.33;;
39300;SDS011;25019;42.626;23.380;2024-03-08T04:56:18;1.47;;;1.30;;
39300;SDS011;25019;42.626;23.380;2024-03-08T04:58:44;1.07;;;0.97;;
39300;SDS011;25019;42.626;23.380;2024-03-08T05:01:14;2.57;;;1.50;;
39300;SDS011;25019;42.626;23.380;2024-03-08T05:03:40;2.07;;;1.40;;
39300;SDS011;25019;42.626;23.380;2024-03-08T05:06:06;2.20;;;1.40;;
39300;SDS011;25019;42.626;23.380;2024-03-08T05:08:32;2.30;;;1.70;;
39300;SDS011;25019;42.626;23.380;2024-03-08T05:10:58;2.67;;;1.97;;
39300;SDS011;25019;42.626;23.380;2024-03-08T05:13:24;3.77;;;1.80;;
39300;SDS011;25019;42.626;23.380;2024-03-08T05:15:49;2.40;;;1.50;;
39300;SDS011;25019;42.626;23.380;2024-03-08T05:18:15;3.43;;;2.27;;
39300;SDS011;25019;42.626;23.380;2024-03-08T05:20:41;2.53;;;1.80;;
39300;SDS011;25019;42.626;23.380;2024-03-08T05:23:07;2.23;;;1.87;;
39300;SDS011;25019;42.626;23.380;2024-03-08T05:25:33;3.40;;;1.30;;
39300;SDS011;25019;42.626;23.380;2024-03-08T05:27:59;4.17;;;1.90;;
39300;SDS011;25019;42.626;23.380;2024-03-08T05:30:24;3.40;;;1.83;;
39300;SDS011;25019;42.626;23.380;2024-03-08T05:32:50;2.90;;;2.40;;
39300;SDS011;25019;42.626;23.380;2024-03-08T05:35:16;2.90;;;2.10;;
39300;SDS011;25019;42.626;23.380;2024-03-08T05:37:42;3.67;;;2.33;;
39300;SDS011;25019;42.626;23.380;2024-03-08T05:40:08;5.20;;;2.77;;
39300;SDS011;25019;42.626;23.380;2024-03-08T05:42:37;3.97;;;3.00;;
39300;SDS011;25019;42.626;23.380;2024-03-08T05:45:05;5.27;;;3.30;;
39300;SDS011;25019;42.626;23.380;2024-03-08T05:47:31;6.57;;;3.93;;
39300;SDS011;25019;42.626;23.380;2024-03-08T05:50:00;6.83;;;4.30;;
39300;SDS011;25019;42.626;23.380;2024-03-08T05:52:27;9.43;;;4.80;;
39300;SDS011;25019;42.626;23.380;2024-03-08T05:54:52;5.50;;;4.23;;
39300;SDS011;25019;42.626;23.380;2024-03-08T05:57:18;10.33;;;5.23;;
39300;SDS011;25019;42.626;23.380;2024-03-08T05:59:44;8.37;;;5.07;;
39300;SDS011;25019;42.626;23.380;2024-03-08T06:02:10;11.10;;;4.80;;
39300;SDS011;25019;42.626;23.380;2024-03-08T06:04:36;8.20;;;4.73;;
39300;SDS011;25019;42.626;23.380;2024-03-08T06:07:01;6.60;;;4.00;;
39300;SDS011;25019;42.626;23.380;2024-03-08T06:09:28;7.37;;;4.40;;
39300;SDS011;25019;42.626;23.380;2024-03-08T06:11:55;6.27;;;4.20;;
39300;SDS011;25019;42.626;23.380;2024-03-08T06:14:22;8.47;;;4.80;;
39300;SDS011;25019;42.626;23.380;2024-03-08T06:16:48;7.23;;;4.47;;
39300;SDS011;25019;42.626;23.380;2024-03-08T06:19:15;6.83;;;3.73;;
39300;SDS011;25019;42.626;23.380;2024-03-08T06:21:41;9.63;;;4.90;;
39300;SDS011;25019;42.626;23.380;2024-03-08T06:24:06;7.50;;;4.93;;
39300;SDS011;25019;42.626;23.380;2024-03-08T06:26:32;7.53;;;4.83;;
39300;SDS011;25019;42.626;23.380;2024-03-08T06:28:58;6.70;;;4.50;;
39300;SDS011;25019;42.626;23.380;2024-03-08T06:31:23;10.13;;;5.50;;
39300;SDS011;25019;42.626;23.380;2024-03-08T06:33:49;7.67;;;4.57;;
39300;SDS011;25019;42.626;23.380;2024-03-08T06:36:16;8.03;;;4.73;;
39300;SDS011;25019;42.626;23.380;2024-03-08T06:38:47;8.43;;;4.87;;
39300;SDS011;25019;42.626;23.380;2024-03-08T06:41:14;6.07;;;4.47;;
39300;SDS011;25019;42.626;23.380;2024-03-08T06:43:43;6.83;;;4.93;;
39300;SDS011;25019;42.626;23.380;2024-03-08T06:46:10;6.50;;;4.30;;
39300;SDS011;25019;42.626;23.380;2024-03-08T06:48:38;8.67;;;4.80;;
39300;SDS011;25019;42.626;23.380;2024-03-08T06:51:04;7.67;;;4.30;;
39300;SDS011;25019;42.626;23.380;2024-03-08T06:53:30;8.10;;;4.70;;
39300;SDS011;25019;42.626;23.380;2024-03-08T06:55:57;7.30;;;4.73;;
39300;SDS011;25019;42.626;23.380;2024-03-08T06:58:25;5.80;;;4.10;;
39300;SDS011;25019;42.626;23.380;2024-03-08T07:00:51;26.33;;;16.37;;
39300;SDS011;25019;42.626;23.380;2024-03-08T07:03:23;12.10;;;8.40;;
39300;SDS011;25019;42.626;23.380;2024-03-08T07:05:49;6.53;;;4.80;;
39300;SDS011;25019;42.626;23.380;2024-03-08T07:08:15;7.03;;;4.50;;
39300;SDS011;25019;42.626;23.380;2024-03-08T07:10:42;5.53;;;4.27;;
39300;SDS011;25019;42.626;23.380;2024-03-08T07:13:08;8.53;;;4.23;;
39300;SDS011;25019;42.626;23.380;2024-03-08T07:15:34;6.30;;;3.90;;
39300;SDS011;25019;42.626;23.380;2024-03-08T07:18:00;6.87;;;4.07;;
39300;SDS011;25019;42.626;23.380;2024-03-08T07:20:27;6.07;;;3.97;;
39300;SDS011;25019;42.626;23.380;2024-03-08T07:22:53;7.07;;;4.57;;
39300;SDS011;25019;42.626;23.380;2024-03-08T07:25:19;7.07;;;4.27;;
39300;SDS011;25019;42.626;23.380;2024-03-08T07:27:52;7.00;;;3.97;;
39300;SDS011;25019;42.626;23.380;2024-03-08T07:30:20;8.67;;;5.13;;
39300;SDS011;25019;42.626;23.380;2024-03-08T07:33:05;6.93;;;4.80;;
39300;SDS011;25019;42.626;23.380;2024-03-08T07:35:32;6.17;;;4.43;;
39300;SDS011;25019;42.626;23.380;2024-03-08T07:38:05;6.80;;;4.17;;
39300;SDS011;25019;42.626;23.380;2024-03-08T07:40:31;6.30;;;4.30;;
39300;SDS011;25019;42.626;23.380;2024-03-08T07:43:00;22.63;;;17.00;;
39300;SDS011;25019;42.626;23.380;2024-03-08T07:45:26;20.47;;;14.73;;
39300;SDS011;25019;42.626;23.380;2024-03-08T07:47:52;6.60;;;4.57;;
39300;SDS011;25019;42.626;23.380;2024-03-08T07:50:18;5.13;;;3.57;;
39300;SDS011;25019;42.626;23.380;2024-03-08T07:52:44;5.30;;;3.43;;
39300;SDS011;25019;42.626;23.380;2024-03-08T07:55:10;6.03;;;3.57;;
39300;SDS011;25019;42.626;23.380;2024-03-08T07:57:36;5.70;;;3.50;;
39300;SDS011;25019;42.626;23.380;2024-03-08T08:00:05;4.10;;;3.37;;
39300;SDS011;25019;42.626;23.380;2024-03-08T08:02:34;3.73;;;2.80;;
39300;SDS011;25019;42.626;23.380;2024-03-08T08:05:01;4.60;;;2.63;;
39300;SDS011;25019;42.626;23.380;2024-03-08T08:07:27;2.97;;;2.43;;
39300;SDS011;25019;42.626;23.380;2024-03-08T08:09:53;3.10;;;2.40;;
39300;SDS011;25019;42.626;23.380;2024-03-08T08:12:19;4.80;;;3.00;;
39300;SDS011;25019;42.626;23.380;2024-03-08T08:14:45;4.57;;;3.20;;
39300;SDS011;25019;42.626;23.380;2024-03-08T08:17:10;6.33;;;3.27;;
39300;SDS011;25019;42.626;23.380;2024-03-08T08:19:37;7.20;;;3.10;;
39300;SDS011;25019;42.626;23.380;2024-03-08T08:22:04;6.50;;;3.47;;
39300;SDS011;25019;42.626;23.380;2024-03-08T08:24:30;5.47;;;3.57;;
39300;SDS011;25019;42.626;23.380;2024-03-08T08:26:56;7.33;;;3.50;;
39300;SDS011;25019;42.626;23.380;2024-03-08T08:29:22;5.27;;;3.53;;
39300;SDS011;25019;42.626;23.380;2024-03-08T08:31:48;5.20;;;3.40;;
39300;SDS011;25019;42.626;23.380;2024-03-08T08:34:16;4.40;;;3.27;;
39300;SDS011;25019;42.626;23.380;2024-03-08T08:36:44;4.20;;;3.20;;
39300;SDS011;25019;42.626;23.380;2024-03-08T08:39:10;21.47;;;12.87;;
39300;SDS011;25019;42.626;23.380;2024-03-08T08:41:39;30.20;;;20.07;;
39300;SDS011;25019;42.626;23.380;2024-03-08T08:44:08;6.93;;;4.73;;
39300;SDS011;25019;42.626;23.380;2024-03-08T08:46:38;7.10;;;4.77;;
39300;SDS011;25019;42.626;23.380;2024-03-08T08:49:04;5.57;;;4.07;;
39300;SDS011;25019;42.626;23.380;2024-03-08T08:51:31;6.23;;;3.90;;
39300;SDS011;25019;42.626;23.380;2024-03-08T08:53:59;5.20;;;3.40;;
39300;SDS011;25019;42.626;23.380;2024-03-08T08:56:25;6.60;;;4.07;;
39300;SDS011;25019;42.626;23.380;2024-03-08T08:58:51;6.00;;;3.87;;
39300;SDS011;25019;42.626;23.380;2024-03-08T09:01:19;4.83;;;3.60;;
39300;SDS011;25019;42.626;23.380;2024-03-08T09:03:45;7.33;;;4.67;;
39300;SDS011;25019;42.626;23.380;2024-03-08T09:06:15;6.27;;;4.40;;
39300;SDS011;25019;42.626;23.380;2024-03-08T09:08:42;5.53;;;3.80;;
39300;SDS011;25019;42.626;23.380;2024-03-08T09:11:09;5.70;;;3.50;;
39300;SDS011;25019;42.626;23.380;2024-03-08T09:13:35;6.87;;;4.10;;
39300;SDS011;25019;42.626;23.380;2024-03-08T09:16:02;5.50;;;3.23;;
39300;SDS011;25019;42.626;23.380;2024-03-08T09:18:30;4.90;;;3.67;;
39300;SDS011;25019;42.626;23.380;2024-03-08T09:20:57;4.03;;;3.17;;
39300;SDS011;25019;42.626;23.380;2024-03-08T09:23:24;4.80;;;3.27;;
39300;SDS011;25019;42.626;23.380;2024-03-08T09:25:58;5.87;;;3.10;;
39300;SDS011;25019;42.626;23.380;2024-03-08T09:28:24;3.97;;;3.20;;
39300;SDS011;25019;42.626;23.380;2024-03-08T09:30:50;4.00;;;3.40;;
39300;SDS011;25019;42.626;23.380;2024-03-08T09:33:16;4.53;;;3.13;;
39300;SDS011;25019;42.626;23.380;2024-03-08T09:35:45;4.20;;;2.70;;
39300;SDS011;25019;42.626;23.380;2024-03-08T09:38:16;4.73;;;2.43;;
39300;SDS011;25019;42.626;23.380;2024-03-08T09:40:42;4.20;;;2.90;;
39300;SDS011;25019;42.626;23.380;2024-03-08T09:43:08;4.10;;;3.03;;
39300;SDS011;25019;42.626;23.380;2024-03-08T09:45:37;3.87;;;2.87;;
39300;SDS011;25019;42.626;23.380;2024-03-08T09:48:10;5.33;;;3.20;;
39300;SDS011;25019;42.626;23.380;2024-03-08T09:50:40;25.70;;;14.63;;
39300;SDS011;25019;42.626;23.380;2024-03-08T09:53:06;20.33;;;12.27;;
39300;SDS011;25019;42.626;23.380;2024-03-08T09:55:38;6.43;;;2.80;;
39300;SDS011;25019;42.626;23.380;2024-03-08T09:58:14;4.37;;;3.10;;
39300;SDS011;25019;42.626;23.380;2024-03-08T10:00:58;2.83;;;2.00;;
39300;SDS011;25019;42.626;23.380;2024-03-08T10:03:27;2.30;;;1.90;;
39300;SDS011;25019;42.626;23.380;2024-03-08T10:05:55;2.07;;;1.57;;
39300;SDS011;25019;42.626;23.380;2024-03-08T10:08:28;1.60;;;1.50;;
39300;SDS011;25019;42.626;23.380;2024-03-08T10:10:55;3.87;;;1.80;;
39300;SDS011;25019;42.626;23.380;2024-03-08T10:13:24;2.70;;;1.80;;
39300;SDS011;25019;42.626;23.380;2024-03-08T10:15:53;5.97;;;2.50;;
39300;SDS011;25019;42.626;23.380;2024-03-08T10:18:19;2.80;;;1.97;;
39300;SDS011;25019;42.626;23.380;2024-03-08T10:20:46;1.97;;;1.70;;
39300;SDS011;25019;42.626;23.380;2024-03-08T10:23:40;41.03;;;22.70;;
39300;SDS011;25019;42.626;23.380;2024-03-08T10:28:41;2.30;;;1.50;;
39300;SDS011;25019;42.626;23.380;2024-03-08T10:31:11;1.60;;;1.40;;
39300;SDS011;25019;42.626;23.380;2024-03-08T10:33:37;3.00;;;1.57;;
39300;SDS011;25019;42.626;23.380;2024-03-08T10:36:05;2.27;;;1.70;;
39300;SDS011;25019;42.626;23.380;2024-03-08T10:38:33;3.10;;;1.97;;
39300;SDS011;25019;42.626;23.380;2024-03-08T10:41:01;1.90;;;1.67;;
39300;SDS011;25019;42.626;23.380;2024-03-08T10:43:32;3.20;;;1.73;;
39300;SDS011;25019;42.626;23.380;2024-03-08T10:48:42;3.53;;;1.60;;
39300;SDS011;25019;42.626;23.380;2024-03-08T10:51:11;4.03;;;1.70;;
39300;SDS011;25019;42.626;23.380;2024-03-08T10:53:37;5.13;;;1.60;;
39300;SDS011;25019;42.626;23.380;2024-03-08T10:56:07;4.13;;;1.67;;
39300;SDS011;25019;42.626;23.380;2024-03-08T10:58:35;2.43;;;1.60;;
39300;SDS011;25019;42.626;23.380;2024-03-08T11:01:02;2.97;;;1.57;;
39300;SDS011;25019;42.626;23.380;2024-03-08T11:15:09;3.93;;;1.87;;
39300;SDS011;25019;42.626;23.380;2024-03-08T11:25:38;2.07;;;1.83;;
39300;SDS011;25019;42.626;23.380;2024-03-08T11:28:08;4.40;;;1.73;;
39300;SDS011;25019;42.626;23.380;2024-03-08T11:30:45;7.00;;;1.23;;
39300;SDS011;25019;42.626;23.380;2024-03-08T11:33:31;1.93;;;1.57;;
39300;SDS011;25019;42.626;23.380;2024-03-08T11:36:03;3.87;;;1.00;;
39300;SDS011;25019;42.626;23.380;2024-03-08T11:38:45;1.40;;;1.30;;
39300;SDS011;25019;42.626;23.380;2024-03-08T11:41:14;11.43;;;1.90;;
39300;SDS011;25019;42.626;23.380;2024-03-08T11:43:43;3.53;;;1.63;;
39300;SDS011;25019;42.626;23.380;2024-03-08T11:46:16;2.17;;;1.47;;
39300;SDS011;25019;42.626;23.380;2024-03-08T11:48:43;1.47;;;1.30;;
39300;SDS011;25019;42.626;23.380;2024-03-08T11:51:12;2.33;;;1.90;;
39300;SDS011;25019;42.626;23.380;2024-03-08T11:53:40;2.00;;;1.63;;
39300;SDS011;25019;42.626;23.380;2024-03-08T11:56:07;1.70;;;1.57;;
39300;SDS011;25019;42.626;23.380;2024-03-08T11:58:34;2.83;;;1.90;;
39300;SDS011;25019;42.626;23.380;2024-03-08T12:01:09;1.73;;;1.43;;
39300;SDS011;25019;42.626;23.380;2024-03-08T12:03:42;2.37;;;1.60;;
39300;SDS011;25019;42.626;23.380;2024-03-08T12:06:08;2.13;;;1.30;;
39300;SDS011;25019;42.626;23.380;2024-03-08T12:08:38;2.77;;;1.50;;
39300;SDS011;25019;42.626;23.380;2024-03-08T12:11:03;2.77;;;1.27;;
39300;SDS011;25019;42.626;23.380;2024-03-08T12:13:33;3.10;;;1.20;;
39300;SDS011;25019;42.626;23.380;2024-03-08T12:16:00;1.60;;;1.20;;
39300;SDS011;25019;42.626;23.380;2024-03-08T12:18:32;2.30;;;1.43;;
39300;SDS011;25019;42.626;23.380;2024-03-08T12:21:06;2.97;;;1.50;;
39300;SDS011;25019;42.626;23.380;2024-03-08T12:23:33;1.53;;;1.30;;
39300;SDS011;25019;42.626;23.380;2024-03-08T12:26:12;2.63;;;1.40;;
39300;SDS011;25019;42.626;23.380;2024-03-08T12:28:42;2.93;;;1.70;;
39300;SDS011;25019;42.626;23.380;2024-03-08T12:31:11;2.10;;;1.60;;
39300;SDS011;25019;42.626;23.380;2024-03-08T12:33:48;2.23;;;1.40;;
39300;SDS011;25019;42.626;23.380;2024-03-08T12:36:14;1.63;;;1.40;;
39300;SDS011;25019;42.626;23.380;2024-03-08T12:38:44;1.93;;;1.43;;
39300;SDS011;25019;42.626;23.380;2024-03-08T12:41:14;1.90;;;1.47;;
39300;SDS011;25019;42.626;23.380;2024-03-08T12:43:44;2.90;;;1.53;;
39300;SDS011;25019;42.626;23.380;2024-03-08T12:46:20;4.43;;;1.40;;
39300;SDS011;25019;42.626;23.380;2024-03-08T12:48:46;1.87;;;1.40;;
39300;SDS011;25019;42.626;23.380;2024-03-08T12:51:13;1.53;;;1.40;;
39300;SDS011;25019;42.626;23.380;2024-03-08T12:53:39;1.57;;;1.40;;
39300;SDS011;25019;42.626;23.380;2024-03-08T12:56:11;4.47;;;1.67;;
39300;SDS011;25019;42.626;23.380;2024-03-08T12:58:37;1.87;;;1.40;;
39300;SDS011;25019;42.626;23.380;2024-03-08T13:01:04;1.87;;;1.30;;
39300;SDS011;25019;42.626;23.380;2024-03-08T13:03:33;1.67;;;1.10;;
39300;SDS011;25019;42.626;23.380;2024-03-08T13:06:01;1.47;;;1.20;;
39300;SDS011;25019;42.626;23.380;2024-03-08T13:08:29;2.20;;;1.50;;
39300;SDS011;25019;42.626;23.380;2024-03-08T13:10:56;1.43;;;1.07;;
39300;SDS011;25019;42.626;23.380;2024-03-08T13:13:22;2.73;;;1.30;;
39300;SDS011;25019;42.626;23.380;2024-03-08T13:15:48;2.80;;;1.60;;
39300;SDS011;25019;42.626;23.380;2024-03-08T13:18:14;2.00;;;1.30;;
39300;SDS011;25019;42.626;23.380;2024-03-08T13:20:41;1.40;;;1.30;;
39300;SDS011;25019;42.626;23.380;2024-03-08T13:23:09;1.67;;;1.23;;
39300;SDS011;25019;42.626;23.380;2024-03-08T13:25:35;2.20;;;1.33;;
39300;SDS011;25019;42.626;23.380;2024-03-08T13:28:03;4.47;;;1.37;;
39300;SDS011;25019;42.626;23.380;2024-03-08T13:30:31;4.43;;;1.53;;
39300;SDS011;25019;42.626;23.380;2024-03-08T13:32:56;1.50;;;1.30;;
39300;SDS011;25019;42.626;23.380;2024-03-08T13:35:22;1.40;;;1.00;;
39300;SDS011;25019;42.626;23.380;2024-03-08T13:37:52;2.47;;;1.07;;
39300;SDS011;25019;42.626;23.380;2024-03-08T13:40:18;2.07;;;1.47;;
39300;SDS011;25019;42.626;23.380;2024-03-08T13:42:48;2.90;;;1.20;;
39300;SDS011;25019;42.626;23.380;2024-03-08T13:45:14;1.77;;;1.20;;
39300;SDS011;25019;42.626;23.380;2024-03-08T13:47:53;5.33;;;1.30;;
39300;SDS011;25019;42.626;23.380;2024-03-08T13:50:19;4.20;;;1.40;;
39300;SDS011;25019;42.626;23.380;2024-03-08T13:52:49;3.80;;;1.50;;
39300;SDS011;25019;42.626;23.380;2024-03-08T13:55:19;1.20;;;1.00;;
39300;SDS011;25019;42.626;23.380;2024-03-08T13:57:49;4.80;;;1.43;;
39300;SDS011;25019;42.626;23.380;2024-03-08T14:00:16;1.53;;;1.27;;
39300;SDS011;25019;42.626;23.380;2024-03-08T14:02:42;4.83;;;1.60;;
39300;SDS011;25019;42.626;23.380;2024-03-08T14:05:08;1.60;;;1.17;;
39300;SDS011;25019;42.626;23.380;2024-03-08T14:07:35;2.50;;;1.40;;
39300;SDS011;25019;42.626;23.380;2024-03-08T14:10:01;3.07;;;1.50;;
39300;SDS011;25019;42.626;23.380;2024-03-08T14:12:26;2.30;;;1.20;;
39300;SDS011;25019;42.626;23.380;2024-03-08T14:14:52;2.10;;;1.30;;
39300;SDS011;25019;42.626;23.380;2024-03-08T14:17:18;1.33;;;1.20;;
39300;SDS011;25019;42.626;23.380;2024-03-08T14:19:44;2.37;;;1.13;;
39300;SDS011;25019;42.626;23.380;2024-03-08T14:22:10;1.97;;;1.30;;
39300;SDS011;25019;42.626;23.380;2024-03-08T14:24:42;1.83;;;1.20;;
39300;SDS011;25019;42.626;23.380;2024-03-08T14:27:10;1.80;;;1.40;;
39300;SDS011;25019;42.626;23.380;2024-03-08T14:29:37;5.23;;;1.47;;
39300;SDS011;25019;42.626;23.380;2024-03-08T14:32:04;3.07;;;1.30;;
39300;SDS011;25019;42.626;23.380;2024-03-08T14:34:34;3.63;;;1.40;;
39300;SDS011;25019;42.626;23.380;2024-03-08T14:37:00;2.23;;;1.50;;
39300;SDS011;25019;42.626;23.380;2024-03-08T14:39:30;5.00;;;1.37;;
39300;SDS011;25019;42.626;23.380;2024-03-08T14:41:56;6.93;;;1.60;;
39300;SDS011;25019;42.626;23.380;2024-03-08T14:44:23;2.80;;;1.57;;
39300;SDS011;25019;42.626;23.380;2024-03-08T14:46:52;3.00;;;1.60;;
39300;SDS011;25019;42.626;23.380;2024-03-08T14:49:18;2.80;;;1.37;;
39300;SDS011;25019;42.626;23.380;2024-03-08T14:51:47;2.10;;;1.37;;
39300;SDS011;25019;42.626;23.380;2024-03-08T14:54:12;1.33;;;1.23;;
39300;SDS011;25019;42.626;23.380;2024-03-08T14:56:38;2.30;;;1.87;;
39300;SDS011;25019;42.626;23.380;2024-03-08T14:59:07;1.67;;;1.30;;
39300;SDS011;25019;42.626;23.380;2024-03-08T15:01:34;4.27;;;1.50;;